createdAt,value
2018-06-30T00:00:03.785Z,54.66
2018-06-30T00:01:10.567Z,54.63
2018-06-30T00:02:17.379Z,54.68
2018-06-30T00:03:24.024Z,54.71
2018-06-30T00:04:30.887Z,54.68
2018-06-30T00:05:37.964Z,54.79
2018-06-30T00:06:45.054Z,54.76
2018-06-30T00:07:52.030Z,54.83
2018-06-30T00:08:58.920Z,54.91
2018-06-30T00:10:05.810Z,54.91
2018-06-30T00:11:12.754Z,54.95
2018-06-30T00:12:19.719Z,55.03
2018-06-30T00:13:26.771Z,55.05
2018-06-30T00:14:33.898Z,55.09
2018-06-30T00:15:40.981Z,55.11
2018-06-30T00:16:47.475Z,55.18
2018-06-30T00:17:54.488Z,55.21
2018-06-30T00:19:01.290Z,55.18
2018-06-30T00:20:08.425Z,55.26
2018-06-30T00:21:15.084Z,55.27
2018-06-30T00:22:22.127Z,55.31
2018-06-30T00:23:29.135Z,55.33
2018-06-30T00:24:36.191Z,55.49
2018-06-30T00:25:43.095Z,55.46
2018-06-30T00:26:49.998Z,55.47
2018-06-30T00:27:56.985Z,55.57
2018-06-30T00:29:03.988Z,55.55
2018-06-30T00:30:10.983Z,55.61
2018-06-30T00:31:17.623Z,55.62
2018-06-30T00:32:24.566Z,55.68
2018-06-30T00:33:31.355Z,55.74
2018-06-30T00:34:38.239Z,55.76
2018-06-30T00:35:44.822Z,55.83
2018-06-30T00:36:51.971Z,55.89
2018-06-30T00:37:58.959Z,55.97
2018-06-30T00:39:06.147Z,56.04
2018-06-30T00:40:12.918Z,56.10
2018-06-30T00:41:20.097Z,56.13
2018-06-30T00:42:27.018Z,56.21
2018-06-30T00:43:34.079Z,56.24
2018-06-30T00:44:41.221Z,56.29
2018-06-30T00:45:47.871Z,56.32
2018-06-30T00:46:54.573Z,56.31
2018-06-30T00:48:01.596Z,56.40
2018-06-30T00:49:08.649Z,56.51
2018-06-30T00:50:15.406Z,56.47
2018-06-30T00:51:22.367Z,56.50
2018-06-30T00:52:29.002Z,56.49
2018-06-30T00:53:35.740Z,56.66
2018-06-30T00:54:43.013Z,56.68
2018-06-30T00:55:50.047Z,56.75
2018-06-30T00:56:56.917Z,56.73
2018-06-30T00:58:03.628Z,56.74
2018-06-30T00:59:10.817Z,56.78
2018-06-30T01:00:17.563Z,56.79
2018-06-30T01:01:24.374Z,56.76
2018-06-30T01:02:31.004Z,56.81
2018-06-30T01:03:37.767Z,56.86
2018-06-30T01:04:52.854Z,56.84
2018-06-30T01:05:51.874Z,56.84
2018-06-30T01:06:58.822Z,56.97
2018-06-30T01:08:05.488Z,56.97
2018-06-30T01:09:12.271Z,56.95
2018-06-30T01:10:19.285Z,56.95
2018-06-30T01:11:25.973Z,56.98
2018-06-30T01:12:32.842Z,57.04
2018-06-30T01:13:39.674Z,56.96
2018-06-30T01:14:46.901Z,56.99
2018-06-30T01:15:53.556Z,57.06
2018-06-30T01:17:00.255Z,57.07
2018-06-30T01:18:07.125Z,57.17
2018-06-30T01:19:14.230Z,57.17
2018-06-30T01:20:21.549Z,57.33
2018-06-30T01:21:28.652Z,57.23
2018-06-30T01:22:35.534Z,57.39
2018-06-30T01:23:42.369Z,57.46
2018-06-30T01:24:49.130Z,57.55
2018-06-30T01:25:56.306Z,57.56
2018-06-30T01:27:03.402Z,57.64
2018-06-30T01:28:10.289Z,57.62
2018-06-30T01:29:17.362Z,57.70
2018-06-30T01:30:24.339Z,57.75
2018-06-30T01:31:34.500Z,57.80
2018-06-30T01:32:38.039Z,57.86
2018-06-30T01:33:44.759Z,57.86
2018-06-30T01:34:51.880Z,57.88
2018-06-30T01:35:58.745Z,58.01
2018-06-30T01:37:17.219Z,57.97
2018-06-30T01:38:24.300Z,58.00
2018-06-30T01:39:31.733Z,58.09
2018-06-30T01:40:38.071Z,58.05
2018-06-30T01:41:45.071Z,58.04
2018-06-30T01:42:51.573Z,58.16
2018-06-30T01:43:58.791Z,58.20
2018-06-30T01:45:05.549Z,58.23
2018-06-30T01:46:12.528Z,58.27
2018-06-30T01:47:19.733Z,58.33
2018-06-30T01:48:26.770Z,58.40
2018-06-30T01:49:33.655Z,58.39
2018-06-30T01:50:40.301Z,58.45
2018-06-30T01:51:47.634Z,58.42
2018-06-30T01:52:54.389Z,58.50
2018-06-30T01:54:01.245Z,58.58
2018-06-30T01:55:08.397Z,58.56
2018-06-30T01:56:15.428Z,58.64
2018-06-30T01:57:23.043Z,58.66
2018-06-30T01:58:29.169Z,58.73
2018-06-30T01:59:35.886Z,58.80
2018-06-30T02:00:45.894Z,58.72
2018-06-30T02:01:49.774Z,58.74
2018-06-30T02:02:56.602Z,58.70
2018-06-30T02:04:03.729Z,58.78
2018-06-30T02:05:10.471Z,58.79
2018-06-30T02:06:17.334Z,58.71
2018-06-30T02:07:24.518Z,58.86
2018-06-30T02:08:31.600Z,58.94
2018-06-30T02:09:38.585Z,59.04
2018-06-30T02:10:45.542Z,59.06
2018-06-30T02:11:53.123Z,59.13
2018-06-30T02:12:59.554Z,59.12
2018-06-30T02:14:06.666Z,59.17
2018-06-30T02:15:13.045Z,59.17
2018-06-30T02:16:20.101Z,59.23
2018-06-30T02:17:26.829Z,59.22
2018-06-30T02:18:33.769Z,59.31
2018-06-30T02:19:40.873Z,59.28
2018-06-30T02:20:47.574Z,59.34
2018-06-30T02:21:54.255Z,59.42
2018-06-30T02:23:01.652Z,59.45
2018-06-30T02:24:08.547Z,59.51
2018-06-30T02:25:17.952Z,59.51
2018-06-30T02:27:29.326Z,59.54
2018-06-30T02:28:36.270Z,59.57
2018-06-30T02:29:42.889Z,59.63
2018-06-30T02:30:49.999Z,59.67
2018-06-30T02:31:56.831Z,59.73
2018-06-30T02:33:04.926Z,59.73
2018-06-30T02:34:10.801Z,59.78
2018-06-30T02:36:27.353Z,59.83
2018-06-30T02:37:31.546Z,59.82
2018-06-30T02:38:39.691Z,59.85
2018-06-30T02:39:45.671Z,59.88
2018-06-30T02:40:52.687Z,59.88
2018-06-30T02:41:59.701Z,59.90
2018-06-30T02:43:06.359Z,59.94
2018-06-30T02:44:13.111Z,59.97
2018-06-30T02:45:20.026Z,60.10
2018-06-30T02:46:27.026Z,60.09
2018-06-30T02:47:34.151Z,60.10
2018-06-30T02:48:40.927Z,60.12
2018-06-30T02:49:47.466Z,60.10
2018-06-30T02:50:54.565Z,60.13
2018-06-30T02:52:01.528Z,60.18
2018-06-30T02:53:08.197Z,60.18
2018-06-30T02:54:15.336Z,60.19
2018-06-30T02:55:22.410Z,60.23
2018-06-30T02:56:29.656Z,60.25
2018-06-30T02:57:36.593Z,60.17
2018-06-30T02:58:43.662Z,60.23
2018-06-30T02:59:50.214Z,60.26
2018-06-30T03:00:57.109Z,60.26
2018-06-30T03:02:03.928Z,60.37
2018-06-30T03:03:10.623Z,60.39
2018-06-30T03:04:17.817Z,60.36
2018-06-30T03:05:24.458Z,60.40
2018-06-30T03:06:31.072Z,60.45
2018-06-30T03:07:37.987Z,60.48
2018-06-30T03:08:45.251Z,60.53
2018-06-30T03:09:52.173Z,60.52
2018-06-30T03:10:59.004Z,60.58
2018-06-30T03:12:06.117Z,60.61
2018-06-30T03:13:12.913Z,60.60
2018-06-30T03:14:19.997Z,60.65
2018-06-30T03:15:27.150Z,60.68
2018-06-30T03:16:34.127Z,60.74
2018-06-30T03:17:41.137Z,60.81
2018-06-30T03:18:47.818Z,60.85
2018-06-30T03:19:54.585Z,60.83
2018-06-30T03:21:01.591Z,60.78
2018-06-30T03:22:08.564Z,60.83
2018-06-30T03:23:15.392Z,60.75
2018-06-30T03:24:22.188Z,60.82
2018-06-30T03:25:29.127Z,60.83
2018-06-30T03:26:35.783Z,60.85
2018-06-30T03:27:42.688Z,60.87
2018-06-30T03:28:49.697Z,60.90
2018-06-30T03:29:56.523Z,60.95
2018-06-30T03:31:03.496Z,61.01
2018-06-30T03:32:10.399Z,61.02
2018-06-30T03:33:17.370Z,61.05
2018-06-30T03:34:24.379Z,61.10
2018-06-30T03:35:31.307Z,61.14
2018-06-30T03:36:37.927Z,61.18
2018-06-30T03:37:44.882Z,61.20
2018-06-30T03:38:53.079Z,61.20
2018-06-30T03:39:59.011Z,61.24
2018-06-30T03:41:06.043Z,61.30
2018-06-30T03:42:13.223Z,61.23
2018-06-30T03:43:20.419Z,61.29
2018-06-30T03:44:27.446Z,61.32
2018-06-30T03:45:34.358Z,61.38
2018-06-30T03:46:41.256Z,61.43
2018-06-30T03:47:48.516Z,61.50
2018-06-30T03:48:55.083Z,61.45
2018-06-30T03:50:02.121Z,61.42
2018-06-30T03:51:09.047Z,61.46
2018-06-30T03:52:16.373Z,61.52
2018-06-30T03:53:23.239Z,61.53
2018-06-30T03:54:30.144Z,61.63
2018-06-30T03:55:37.278Z,61.64
2018-06-30T03:56:44.198Z,61.64
2018-06-30T03:57:51.235Z,61.72
2018-06-30T03:58:58.868Z,61.77
2018-06-30T04:00:05.515Z,61.80
2018-06-30T04:01:12.060Z,61.86
2018-06-30T04:02:19.459Z,61.89
2018-06-30T04:03:25.406Z,61.94
2018-06-30T04:04:33.367Z,62.03
2018-06-30T04:05:40.110Z,62.06
2018-06-30T04:06:45.869Z,62.06
2018-06-30T04:07:52.927Z,62.07
2018-06-30T04:08:59.511Z,62.17
2018-06-30T04:10:06.679Z,62.20
2018-06-30T04:11:13.344Z,62.25
2018-06-30T04:12:20.239Z,62.33
2018-06-30T04:13:27.037Z,62.39
2018-06-30T04:14:34.013Z,62.35
2018-06-30T04:15:40.855Z,62.37
2018-06-30T04:16:47.436Z,62.46
2018-06-30T04:17:54.473Z,62.55
2018-06-30T04:19:01.362Z,62.57
2018-06-30T04:20:08.275Z,62.60
2018-06-30T04:21:14.828Z,62.61
2018-06-30T04:22:22.405Z,62.66
2018-06-30T04:23:28.795Z,62.70
2018-06-30T04:24:35.960Z,62.73
2018-06-30T04:25:43.055Z,62.75
2018-06-30T04:26:49.963Z,62.79
2018-06-30T04:27:57.016Z,62.90
2018-06-30T04:29:03.891Z,62.97
2018-06-30T04:30:10.964Z,62.99
2018-06-30T04:31:17.947Z,63.01
2018-06-30T04:32:25.114Z,63.01
2018-06-30T04:33:31.949Z,63.07
2018-06-30T04:34:38.798Z,63.14
2018-06-30T04:35:45.692Z,63.22
2018-06-30T04:36:52.697Z,63.31
2018-06-30T04:39:06.747Z,63.49
2018-06-30T04:40:13.703Z,63.60
2018-06-30T04:41:20.661Z,63.66
2018-06-30T04:42:27.444Z,63.73
2018-06-30T04:43:39.905Z,63.79
2018-06-30T04:44:42.132Z,63.82
2018-06-30T04:45:48.404Z,63.86
2018-06-30T04:46:54.996Z,63.94
2018-06-30T04:48:01.931Z,63.97
2018-06-30T04:49:09.114Z,64.01
2018-06-30T04:50:15.936Z,64.05
2018-06-30T04:51:23.418Z,64.10
2018-06-30T04:52:29.604Z,64.17
2018-06-30T04:53:39.928Z,64.25
2018-06-30T04:55:53.477Z,64.53
2018-06-30T04:57:00.214Z,64.57
2018-06-30T04:59:10.866Z,64.74
2018-06-30T05:00:17.454Z,64.83
2018-06-30T05:01:25.987Z,64.94
2018-06-30T05:03:45.308Z,65.03
2018-06-30T05:04:47.222Z,65.10
2018-06-30T05:05:59.766Z,65.21
2018-06-30T05:08:28.620Z,65.45
2018-06-30T05:09:34.141Z,65.62
2018-06-30T05:14:40.734Z,65.68
2018-06-30T05:15:48.193Z,65.92
2018-06-30T05:16:54.465Z,65.99
2018-06-30T05:18:01.678Z,66.04
2018-06-30T05:20:20.787Z,66.11
2018-06-30T05:21:30.965Z,66.31
2018-06-30T05:23:41.101Z,66.47
2018-06-30T05:24:51.232Z,66.45
2018-06-30T05:26:01.549Z,66.51
2018-06-30T05:27:01.414Z,66.53
2018-06-30T05:28:08.540Z,66.55
2018-06-30T05:29:15.026Z,66.66
2018-06-30T05:30:33.968Z,66.67
2018-06-30T05:31:29.180Z,66.85
2018-06-30T05:32:36.460Z,66.94
2018-06-30T05:33:48.219Z,66.96
2018-06-30T05:35:57.534Z,67.17
2018-06-30T05:37:04.452Z,67.28
2018-06-30T05:38:13.821Z,67.40
2018-06-30T05:39:18.352Z,67.47
2018-06-30T05:40:24.861Z,67.68
2018-06-30T05:41:32.159Z,67.73
2018-06-30T05:42:38.956Z,67.87
2018-06-30T05:43:46.168Z,67.84
2018-06-30T05:44:53.007Z,67.97
2018-06-30T05:45:59.959Z,68.12
2018-06-30T05:47:06.781Z,68.20
2018-06-30T05:48:16.235Z,68.30
2018-06-30T05:49:21.426Z,68.38
2018-06-30T05:50:27.482Z,68.49
2018-06-30T05:51:34.210Z,68.59
2018-06-30T05:52:40.989Z,68.71
2018-06-30T05:54:55.194Z,69.04
2018-06-30T05:56:01.782Z,69.22
2018-06-30T05:57:08.614Z,69.41
2018-06-30T05:58:15.683Z,69.68
2018-06-30T05:59:22.556Z,69.81
2018-06-30T06:00:32.757Z,70.09
2018-06-30T06:01:36.402Z,70.41
2018-06-30T06:02:45.268Z,70.57
2018-06-30T06:03:50.348Z,70.81
2018-06-30T06:04:57.638Z,71.23
2018-06-30T06:06:04.572Z,71.52
2018-06-30T06:07:11.571Z,71.83
2018-06-30T06:08:23.368Z,72.08
2018-06-30T06:09:25.616Z,72.38
2018-06-30T06:10:32.840Z,72.54
2018-06-30T06:11:39.577Z,72.57
2018-06-30T06:12:46.584Z,72.84
2018-06-30T06:13:53.561Z,73.08
2018-06-30T06:15:00.320Z,73.17
2018-06-30T06:16:07.460Z,73.37
2018-06-30T06:18:23.660Z,73.54
2018-06-30T06:19:28.285Z,73.77
2018-06-30T06:20:35.294Z,73.97
2018-06-30T06:21:42.718Z,74.07
2018-06-30T06:22:49.078Z,74.32
2018-06-30T06:23:56.347Z,74.54
2018-06-30T06:25:02.727Z,74.82
2018-06-30T06:26:09.922Z,75.10
2018-06-30T06:27:16.828Z,75.31
2018-06-30T06:28:29.005Z,75.54
2018-06-30T06:29:31.117Z,75.65
2018-06-30T06:30:38.425Z,75.74
2018-06-30T06:31:45.523Z,75.73
2018-06-30T06:32:52.244Z,75.99
2018-06-30T06:33:59.857Z,76.35
2018-06-30T06:35:06.336Z,76.48
2018-06-30T06:37:19.988Z,76.58
2018-06-30T06:38:27.517Z,76.45
2018-06-30T06:39:33.890Z,76.67
2018-06-30T06:40:41.157Z,76.80
2018-06-30T06:41:47.802Z,76.95
2018-06-30T06:42:54.702Z,77.07
2018-06-30T06:44:01.906Z,76.86
2018-06-30T06:45:09.122Z,76.53
2018-06-30T06:46:15.773Z,76.47
2018-06-30T06:47:22.691Z,76.49
2018-06-30T06:48:29.636Z,76.62
2018-06-30T06:49:36.546Z,76.67
2018-06-30T06:50:43.452Z,76.73
2018-06-30T06:51:49.848Z,76.69
2018-06-30T06:52:56.715Z,76.50
2018-06-30T06:54:03.807Z,76.32
2018-06-30T06:56:17.556Z,76.00
2018-06-30T06:57:24.411Z,75.66
2018-06-30T06:58:31.438Z,75.60
2018-06-30T06:59:38.715Z,75.47
2018-06-30T07:00:45.317Z,75.35
2018-06-30T07:01:52.156Z,75.03
2018-06-30T07:02:59.097Z,74.76
2018-06-30T07:04:06.324Z,74.72
2018-06-30T07:05:12.847Z,74.50
2018-06-30T07:06:20.300Z,74.37
2018-06-30T07:07:26.768Z,74.20
2018-06-30T07:08:33.663Z,73.92
2018-06-30T07:09:40.559Z,73.97
2018-06-30T07:10:53.655Z,73.96
2018-06-30T07:11:54.740Z,74.02
2018-06-30T07:13:01.387Z,73.76
2018-06-30T07:14:08.218Z,73.72
2018-06-30T07:15:14.967Z,73.62
2018-06-30T07:16:22.740Z,73.74
2018-06-30T07:17:28.744Z,73.85
2018-06-30T07:18:35.667Z,73.59
2018-06-30T07:19:42.624Z,73.54
2018-06-30T07:20:49.529Z,73.58
2018-06-30T07:21:56.406Z,73.78
2018-06-30T07:23:03.287Z,73.72
2018-06-30T07:24:11.131Z,73.55
2018-06-30T07:25:17.970Z,73.59
2018-06-30T07:26:27.209Z,73.44
2018-06-30T07:27:30.644Z,73.28
2018-06-30T07:28:37.454Z,73.06
2018-06-30T07:30:53.545Z,73.18
2018-06-30T07:31:58.483Z,72.96
2018-06-30T07:34:12.307Z,72.81
2018-06-30T07:35:19.486Z,72.58
2018-06-30T07:36:27.226Z,72.76
2018-06-30T07:37:33.361Z,72.65
2018-06-30T07:38:40.244Z,72.77
2018-06-30T07:39:47.386Z,72.80
2018-06-30T07:40:54.299Z,72.79
2018-06-30T07:42:01.381Z,72.78
2018-06-30T07:43:08.511Z,72.55
2018-06-30T07:44:17.240Z,72.56
2018-06-30T07:45:22.516Z,72.42
2018-06-30T07:46:29.624Z,72.23
2018-06-30T07:47:37.671Z,72.27
2018-06-30T07:49:21.649Z,72.29
2018-06-30T07:50:23.842Z,72.24
2018-06-30T07:51:33.267Z,71.98
2018-06-30T07:52:37.558Z,72.10
2018-06-30T07:53:43.595Z,71.75
2018-06-30T07:54:50.650Z,71.90
2018-06-30T07:55:57.648Z,71.94
2018-06-30T07:57:04.037Z,71.73
2018-06-30T07:58:11.118Z,71.89
2018-06-30T07:59:18.091Z,71.99
2018-06-30T08:00:24.983Z,72.23
2018-06-30T08:01:31.971Z,72.37
2018-06-30T08:02:39.083Z,72.45
2018-06-30T08:03:47.115Z,72.26
2018-06-30T08:05:56.841Z,72.23
2018-06-30T08:07:03.334Z,72.02
2018-06-30T08:08:09.540Z,71.93
2018-06-30T08:09:16.461Z,71.87
2018-06-30T08:10:31.239Z,71.76
2018-06-30T08:11:30.693Z,71.59
2018-06-30T08:12:38.025Z,71.56
2018-06-30T08:13:44.638Z,71.59
2018-06-30T08:14:50.905Z,71.41
2018-06-30T08:16:02.697Z,71.33
2018-06-30T08:17:07.123Z,71.26
2018-06-30T08:18:12.935Z,70.94
2018-06-30T08:19:18.922Z,70.79
2018-06-30T08:20:26.016Z,70.94
2018-06-30T08:21:32.647Z,71.17
2018-06-30T08:22:43.997Z,71.01
2018-06-30T08:23:46.621Z,70.62
2018-06-30T08:24:53.634Z,70.52
2018-06-30T08:26:00.857Z,70.30
2018-06-30T08:27:07.717Z,70.39
2018-06-30T08:29:21.874Z,70.25
2018-06-30T08:30:28.568Z,70.30
2018-06-30T08:31:38.984Z,70.23
2018-06-30T08:32:45.586Z,70.00
2018-06-30T08:33:54.295Z,69.84
2018-06-30T08:34:58.196Z,69.83
2018-06-30T08:36:03.692Z,69.82
2018-06-30T08:37:11.480Z,69.77
2018-06-30T08:38:17.522Z,69.72
2018-06-30T08:39:24.471Z,69.31
2018-06-30T08:40:31.208Z,69.22
2018-06-30T08:41:38.123Z,68.95
2018-06-30T08:42:45.061Z,68.60
2018-06-30T08:43:53.078Z,68.38
2018-06-30T08:44:58.499Z,68.27
2018-06-30T08:46:05.388Z,68.24
2018-06-30T08:47:12.620Z,68.15
2018-06-30T08:48:19.413Z,67.86
2018-06-30T08:49:32.132Z,67.74
2018-06-30T08:50:33.253Z,67.82
2018-06-30T08:51:41.238Z,67.49
2018-06-30T08:52:47.043Z,67.40
2018-06-30T08:53:54.003Z,67.32
2018-06-30T08:55:01.797Z,67.20
2018-06-30T08:56:07.704Z,67.17
2018-06-30T08:57:14.294Z,67.35
2018-06-30T08:58:21.400Z,67.15
2018-06-30T09:01:45.617Z,67.11
2018-06-30T09:02:53.108Z,66.83
2018-06-30T09:03:59.231Z,66.79
2018-06-30T09:05:06.092Z,66.79
2018-06-30T09:06:13.104Z,66.69
2018-06-30T09:07:20.463Z,66.69
2018-06-30T09:08:27.052Z,67.01
2018-06-30T09:09:33.919Z,67.16
2018-06-30T09:10:40.761Z,66.77
2018-06-30T09:11:47.612Z,66.60
2018-06-30T09:12:54.550Z,66.37
2018-06-30T09:14:01.428Z,66.28
2018-06-30T09:15:10.492Z,66.23
2018-06-30T09:16:15.228Z,66.00
2018-06-30T09:17:21.949Z,65.77
2018-06-30T09:19:46.693Z,65.42
2018-06-30T09:20:46.479Z,65.23
2018-06-30T09:21:49.329Z,65.03
2018-06-30T09:22:56.303Z,64.69
2018-06-30T09:24:05.008Z,64.46
2018-06-30T09:26:17.405Z,63.99
2018-06-30T09:27:24.209Z,63.60
2018-06-30T09:28:31.140Z,63.36
2018-06-30T09:29:38.034Z,63.42
2018-06-30T09:30:45.256Z,63.32
2018-06-30T09:31:52.132Z,63.27
2018-06-30T09:33:00.020Z,62.85
2018-06-30T09:34:05.938Z,62.80
2018-06-30T09:36:20.101Z,62.40
2018-06-30T09:37:27.043Z,62.24
2018-06-30T09:38:33.846Z,62.17
2018-06-30T09:39:48.007Z,62.26
2018-06-30T09:40:47.851Z,62.23
2018-06-30T09:41:56.731Z,62.22
2018-06-30T09:43:01.564Z,62.04
2018-06-30T09:44:09.765Z,62.14
2018-06-30T09:45:15.130Z,62.51
2018-06-30T09:46:21.904Z,62.41
2018-06-30T09:47:28.783Z,62.04
2018-06-30T09:48:35.685Z,61.99
2018-06-30T09:49:42.440Z,61.78
2018-06-30T09:50:49.202Z,61.76
2018-06-30T09:51:55.992Z,61.60
2018-06-30T09:53:02.802Z,61.38
2018-06-30T09:54:09.643Z,61.15
2018-06-30T09:55:16.498Z,61.14
2018-06-30T09:56:24.366Z,60.92
2018-06-30T09:57:30.137Z,60.88
2018-06-30T09:58:42.500Z,60.88
2018-06-30T09:59:46.248Z,60.82
2018-06-30T10:00:51.091Z,60.81
2018-06-30T10:01:57.836Z,60.93
2018-06-30T10:03:05.062Z,60.93
2018-06-30T10:04:11.879Z,60.87
2018-06-30T10:05:18.757Z,60.65
2018-06-30T10:06:25.590Z,60.61
2018-06-30T10:07:33.294Z,60.39
2018-06-30T10:08:39.398Z,60.10
2018-06-30T10:09:46.547Z,60.02
2018-06-30T10:10:53.304Z,59.82
2018-06-30T10:12:02.161Z,60.48
2018-06-30T10:13:07.128Z,60.01
2018-06-30T10:14:13.979Z,59.79
2018-06-30T10:15:20.775Z,59.57
2018-06-30T10:16:27.706Z,59.46
2018-06-30T10:17:34.506Z,58.82
2018-06-30T10:18:42.179Z,58.40
2018-06-30T10:19:48.172Z,58.03
2018-06-30T10:20:55.139Z,57.87
2018-06-30T10:22:01.962Z,57.50
2018-06-30T10:23:08.828Z,57.36
2018-06-30T10:24:18.675Z,57.18
2018-06-30T10:25:22.792Z,57.36
2018-06-30T10:26:30.927Z,57.49
2018-06-30T10:27:36.830Z,57.87
2018-06-30T10:28:58.971Z,57.74
2018-06-30T10:30:05.849Z,57.16
2018-06-30T10:31:12.679Z,56.97
2018-06-30T10:32:19.442Z,56.57
2018-06-30T10:33:26.567Z,56.49
2018-06-30T10:34:33.412Z,56.36
2018-06-30T10:35:40.251Z,56.89
2018-06-30T10:36:47.121Z,57.09
2018-06-30T10:37:54.020Z,57.02
2018-06-30T10:39:00.827Z,57.17
2018-06-30T10:40:09.345Z,56.61
2018-06-30T10:42:22.192Z,55.77
2018-06-30T10:43:29.123Z,55.33
2018-06-30T10:44:36.272Z,55.05
2018-06-30T10:45:47.563Z,54.88
2018-06-30T10:46:49.941Z,55.01
2018-06-30T10:47:56.781Z,54.85
2018-06-30T10:49:03.699Z,54.86
2018-06-30T10:50:10.686Z,54.56
2018-06-30T10:51:17.571Z,54.55
2018-06-30T10:52:24.430Z,54.65
2018-06-30T10:53:31.166Z,54.62
2018-06-30T10:54:37.934Z,54.62
2018-06-30T10:55:45.065Z,54.33
2018-06-30T10:56:51.980Z,54.40
2018-06-30T10:57:58.835Z,54.94
2018-06-30T10:59:05.671Z,54.69
2018-06-30T11:00:12.493Z,54.89
2018-06-30T11:01:19.340Z,55.16
2018-06-30T11:02:26.247Z,55.25
2018-06-30T11:03:33.044Z,55.08
2018-06-30T11:04:39.908Z,55.45
2018-06-30T11:05:46.839Z,55.88
2018-06-30T11:06:53.675Z,55.58
2018-06-30T11:08:00.543Z,55.03
2018-06-30T11:09:07.502Z,55.02
2018-06-30T11:10:14.323Z,55.52
2018-06-30T11:11:21.164Z,55.30
2018-06-30T11:12:28.022Z,55.22
2018-06-30T11:13:34.769Z,55.15
2018-06-30T11:14:41.582Z,55.20
2018-06-30T11:15:48.514Z,55.07
2018-06-30T11:16:55.443Z,54.51
2018-06-30T11:18:02.227Z,54.31
2018-06-30T11:19:09.147Z,54.14
2018-06-30T11:20:15.958Z,53.87
2018-06-30T11:21:22.698Z,53.54
2018-06-30T11:22:29.471Z,53.29
2018-06-30T11:23:36.344Z,53.32
2018-06-30T11:24:43.206Z,53.02
2018-06-30T11:25:50.395Z,52.80
2018-06-30T11:26:57.443Z,52.78
2018-06-30T11:28:04.103Z,52.93
2018-06-30T11:29:10.939Z,52.81
2018-06-30T11:30:17.923Z,52.72
2018-06-30T11:31:24.794Z,52.57
2018-06-30T11:32:31.670Z,52.49
2018-06-30T11:33:38.584Z,52.44
2018-06-30T11:34:45.455Z,52.37
2018-06-30T11:35:53.446Z,52.34
2018-06-30T11:36:59.295Z,51.79
2018-06-30T11:38:06.108Z,51.85
2018-06-30T11:39:13.892Z,51.96
2018-06-30T11:40:19.652Z,51.81
2018-06-30T11:41:27.057Z,51.69
2018-06-30T11:42:33.455Z,51.64
2018-06-30T11:43:41.141Z,51.64
2018-06-30T11:44:46.971Z,51.75
2018-06-30T11:45:53.820Z,51.64
2018-06-30T11:47:00.698Z,51.22
2018-06-30T11:48:07.732Z,51.28
2018-06-30T11:49:18.652Z,51.53
2018-06-30T11:50:23.227Z,51.55
2018-06-30T11:51:28.331Z,51.30
2018-06-30T11:52:35.435Z,51.22
2018-06-30T11:53:42.302Z,50.86
2018-06-30T11:54:49.159Z,50.70
2018-06-30T11:55:56.181Z,50.98
2018-06-30T11:57:03.125Z,50.95
2018-06-30T11:58:10.281Z,51.08
2018-06-30T11:59:17.217Z,50.93
2018-06-30T12:00:23.700Z,50.82
2018-06-30T12:01:30.147Z,50.75
2018-06-30T12:02:37.001Z,50.56
2018-06-30T12:03:43.848Z,50.39
2018-06-30T12:04:50.762Z,50.31
2018-06-30T12:05:57.583Z,50.36
2018-06-30T12:07:04.521Z,49.91
2018-06-30T12:08:11.399Z,50.09
2018-06-30T12:09:22.735Z,50.24
2018-06-30T12:10:25.396Z,50.02
2018-06-30T12:11:34.043Z,49.65
2018-06-30T12:12:41.521Z,49.56
2018-06-30T12:13:46.594Z,49.44
2018-06-30T12:14:53.547Z,49.31
2018-06-30T12:16:00.711Z,49.67
2018-06-30T12:17:07.764Z,49.46
2018-06-30T12:18:14.604Z,49.48
2018-06-30T12:19:21.402Z,49.47
2018-06-30T12:20:28.224Z,49.74
2018-06-30T12:21:35.163Z,50.27
2018-06-30T12:22:42.015Z,50.56
2018-06-30T12:23:48.931Z,51.24
2018-06-30T12:24:55.784Z,51.51
2018-06-30T12:26:02.686Z,51.40
2018-06-30T12:27:09.603Z,51.37
2018-06-30T12:28:16.516Z,51.77
2018-06-30T12:29:23.466Z,51.52
2018-06-30T12:30:30.491Z,50.99
2018-06-30T12:31:37.362Z,50.71
2018-06-30T12:32:44.281Z,50.40
2018-06-30T12:33:51.213Z,50.32
2018-06-30T12:34:58.039Z,50.28
2018-06-30T12:36:04.880Z,50.17
2018-06-30T12:37:11.767Z,49.71
2018-06-30T12:38:18.555Z,49.44
2018-06-30T12:39:25.540Z,49.08
2018-06-30T12:40:32.445Z,48.90
2018-06-30T12:41:39.226Z,48.77
2018-06-30T12:42:46.143Z,48.74
2018-06-30T12:43:52.983Z,48.50
2018-06-30T12:44:59.893Z,48.35
2018-06-30T12:46:08.403Z,48.39
2018-06-30T12:47:13.735Z,48.34
2018-06-30T12:48:20.637Z,48.44
2018-06-30T12:49:27.532Z,48.13
2018-06-30T12:50:34.425Z,47.74
2018-06-30T12:51:41.275Z,47.71
2018-06-30T12:52:48.124Z,47.78
2018-06-30T12:53:55.021Z,47.88
2018-06-30T12:55:01.915Z,47.83
2018-06-30T12:56:08.879Z,48.08
2018-06-30T12:57:16.084Z,48.42
2018-06-30T12:58:22.862Z,48.54
2018-06-30T12:59:29.785Z,48.40
2018-06-30T13:00:36.910Z,48.36
2018-06-30T13:01:43.716Z,48.55
2018-06-30T13:02:50.530Z,48.63
2018-06-30T13:03:57.419Z,48.44
2018-06-30T13:05:04.588Z,48.47
2018-06-30T13:06:11.167Z,48.42
2018-06-30T13:07:18.039Z,48.49
2018-06-30T13:08:25.022Z,48.44
2018-06-30T13:09:32.157Z,48.52
2018-06-30T13:10:38.623Z,48.36
2018-06-30T13:11:46.501Z,48.22
2018-06-30T13:12:52.851Z,47.92
2018-06-30T13:13:59.899Z,47.42
2018-06-30T13:15:06.943Z,47.07
2018-06-30T13:16:14.167Z,47.08
2018-06-30T13:17:20.989Z,47.34
2018-06-30T13:18:27.810Z,47.60
2018-06-30T13:19:34.827Z,47.54
2018-06-30T13:20:41.600Z,47.43
2018-06-30T13:21:48.733Z,47.63
2018-06-30T13:22:55.176Z,47.69
2018-06-30T13:24:02.019Z,47.57
2018-06-30T13:26:16.004Z,47.30
2018-06-30T13:27:22.977Z,47.21
2018-06-30T13:28:30.007Z,46.99
2018-06-30T13:29:36.998Z,47.28
2018-06-30T13:30:44.023Z,47.82
2018-06-30T13:31:51.020Z,47.88
2018-06-30T13:32:57.767Z,47.76
2018-06-30T13:34:04.928Z,48.06
2018-06-30T13:35:11.391Z,48.95
2018-06-30T13:36:18.259Z,49.29
2018-06-30T13:37:26.304Z,49.59
2018-06-30T13:38:32.038Z,49.63
2018-06-30T13:39:38.879Z,49.08
2018-06-30T13:40:45.917Z,49.05
2018-06-30T13:41:52.904Z,48.70
2018-06-30T13:42:59.803Z,49.21
2018-06-30T13:44:06.639Z,49.18
2018-06-30T13:45:13.470Z,49.71
2018-06-30T13:46:20.345Z,49.94
2018-06-30T13:47:27.283Z,50.24
2018-06-30T13:48:34.178Z,50.07
2018-06-30T13:49:41.101Z,50.16
2018-06-30T13:50:48.062Z,50.52
2018-06-30T13:51:55.035Z,50.60
2018-06-30T13:53:01.879Z,50.00
2018-06-30T13:54:08.828Z,49.81
2018-06-30T13:55:15.665Z,49.64
2018-06-30T13:56:22.543Z,49.88
2018-06-30T13:57:29.402Z,50.24
2018-06-30T13:58:36.327Z,49.64
2018-06-30T13:59:43.308Z,50.11
2018-06-30T14:00:50.179Z,49.78
2018-06-30T14:01:56.837Z,48.99
2018-06-30T14:03:03.739Z,48.73
2018-06-30T14:04:10.643Z,48.55
2018-06-30T14:05:17.859Z,48.36
2018-06-30T14:06:24.711Z,48.12
2018-06-30T14:07:31.487Z,48.37
2018-06-30T14:08:38.271Z,48.14
2018-06-30T14:09:45.106Z,47.82
2018-06-30T14:10:52.043Z,47.53
2018-06-30T14:11:58.906Z,47.41
2018-06-30T14:13:05.861Z,47.71
2018-06-30T14:14:12.733Z,47.55
2018-06-30T14:15:19.571Z,47.83
2018-06-30T14:16:26.405Z,47.09
2018-06-30T14:17:34.003Z,46.93
2018-06-30T14:18:40.642Z,47.59
2018-06-30T14:19:46.948Z,47.08
2018-06-30T14:20:53.919Z,46.69
2018-06-30T14:22:00.798Z,46.55
2018-06-30T14:23:11.763Z,46.69
2018-06-30T14:24:14.600Z,46.90
2018-06-30T14:25:38.875Z,46.68
2018-06-30T14:26:50.331Z,46.38
2018-06-30T14:27:53.003Z,46.15
2018-06-30T14:29:00.047Z,46.26
2018-06-30T14:30:06.861Z,45.67
2018-06-30T14:31:14.334Z,45.73
2018-06-30T14:32:26.025Z,45.64
2018-06-30T14:33:29.306Z,45.60
2018-06-30T14:34:34.703Z,45.62
2018-06-30T14:36:48.608Z,45.53
2018-06-30T14:37:55.460Z,45.47
2018-06-30T14:39:02.420Z,46.23
2018-06-30T14:40:09.349Z,46.24
2018-06-30T14:41:16.247Z,46.22
2018-06-30T14:42:23.328Z,46.32
2018-06-30T14:43:30.192Z,46.99
2018-06-30T14:44:37.070Z,46.59
2018-06-30T14:45:43.981Z,46.26
2018-06-30T14:46:51.081Z,46.24
2018-06-30T14:47:58.174Z,46.35
2018-06-30T14:49:05.036Z,46.18
2018-06-30T14:50:12.173Z,46.40
2018-06-30T14:51:27.445Z,46.10
2018-06-30T14:52:25.811Z,45.87
2018-06-30T14:53:32.657Z,45.74
2018-06-30T14:54:39.455Z,45.71
2018-06-30T14:55:46.322Z,45.53